sensor_id;sensor_type;location;lat;lon;timestamp;P1;durP1;ratioP1;P2;durP2;ratioP2
23624;SDS011;11989;47.872;12.014;2022-11-24T07:04:57;7.07;;;1.73;;
23624;SDS011;11989;47.872;12.014;2022-11-24T07:07:27;9.15;;;1.50;;
23624;SDS011;11989;47.872;12.014;2022-11-24T07:09:53;9.77;;;1.90;;
23624;SDS011;11989;47.872;12.014;2022-11-24T07:12:19;6.05;;;1.52;;
23624;SDS011;11989;47.872;12.014;2022-11-24T07:14:45;6.70;;;1.48;;
23624;SDS011;11989;47.872;12.014;2022-11-24T07:17:11;6.38;;;1.52;;
23624;SDS011;11989;47.872;12.014;2022-11-24T07:19:37;7.93;;;1.38;;
23624;SDS011;11989;47.872;12.014;2022-11-24T07:22:03;8.85;;;1.58;;
23624;SDS011;11989;47.872;12.014;2022-11-24T07:24:29;5.07;;;1.40;;
23624;SDS011;11989;47.872;12.014;2022-11-24T07:26:55;5.82;;;2.10;;
23624;SDS011;11989;47.872;12.014;2022-11-24T07:29:21;7.90;;;1.98;;
23624;SDS011;11989;47.872;12.014;2022-11-24T07:31:47;5.90;;;1.73;;
23624;SDS011;11989;47.872;12.014;2022-11-24T07:34:13;7.13;;;1.90;;
23624;SDS011;11989;47.872;12.014;2022-11-24T07:36:40;10.57;;;1.80;;
23624;SDS011;11989;47.872;12.014;2022-11-24T07:39:06;6.57;;;1.80;;
23624;SDS011;11989;47.872;12.014;2022-11-24T07:41:32;8.85;;;2.53;;
23624;SDS011;11989;47.872;12.014;2022-11-24T07:43:58;5.18;;;1.60;;
23624;SDS011;11989;47.872;12.014;2022-11-24T07:46:24;5.50;;;1.88;;
23624;SDS011;11989;47.872;12.014;2022-11-24T07:48:50;9.40;;;1.80;;
23624;SDS011;11989;47.872;12.014;2022-11-24T07:51:17;8.77;;;2.50;;
23624;SDS011;11989;47.872;12.014;2022-11-24T07:53:43;9.50;;;2.15;;
23624;SDS011;11989;47.872;12.014;2022-11-24T07:56:10;9.70;;;2.88;;
23624;SDS011;11989;47.872;12.014;2022-11-24T07:58:36;14.45;;;3.63;;
23624;SDS011;11989;47.872;12.014;2022-11-24T15:03:28;7.30;;;2.72;;
23624;SDS011;11989;47.872;12.014;2022-11-24T15:05:55;2.30;;;0.95;;
23624;SDS011;11989;47.872;12.014;2022-11-24T15:08:26;4.60;;;1.60;;
23624;SDS011;11989;47.872;12.014;2022-11-24T15:10:58;3.78;;;1.52;;
23624;SDS011;11989;47.872;12.014;2022-11-24T15:13:26;8.55;;;2.10;;
23624;SDS011;11989;47.872;12.014;2022-11-24T15:16:26;6.05;;;2.17;;
23624;SDS011;11989;47.872;12.014;2022-11-24T15:18:45;5.80;;;2.28;;
23624;SDS011;11989;47.872;12.014;2022-11-24T15:21:12;5.20;;;1.70;;
23624;SDS011;11989;47.872;12.014;2022-11-24T15:23:39;4.18;;;1.90;;
23624;SDS011;11989;47.872;12.014;2022-11-24T15:28:33;6.25;;;2.38;;
23624;SDS011;11989;47.872;12.014;2022-11-24T15:31:00;4.82;;;2.30;;
23624;SDS011;11989;47.872;12.014;2022-11-24T15:33:27;7.25;;;2.88;;
23624;SDS011;11989;47.872;12.014;2022-11-24T15:35:53;8.77;;;4.47;;
23624;SDS011;11989;47.872;12.014;2022-11-24T15:38:19;8.07;;;4.78;;
23624;SDS011;11989;47.872;12.014;2022-11-24T15:40:46;7.15;;;3.70;;
23624;SDS011;11989;47.872;12.014;2022-11-24T15:43:35;6.50;;;2.90;;
23624;SDS011;11989;47.872;12.014;2022-11-24T15:46:00;6.68;;;3.10;;
23624;SDS011;11989;47.872;12.014;2022-11-24T15:48:26;7.00;;;4.95;;
23624;SDS011;11989;47.872;12.014;2022-11-24T15:50:53;6.55;;;4.13;;
23624;SDS011;11989;47.872;12.014;2022-11-24T15:53:40;6.20;;;3.42;;
23624;SDS011;11989;47.872;12.014;2022-11-24T15:56:10;5.80;;;2.95;;
23624;SDS011;11989;47.872;12.014;2022-11-24T15:58:37;7.03;;;3.15;;
23624;SDS011;11989;47.872;12.014;2022-11-24T16:01:03;7.18;;;3.35;;
23624;SDS011;11989;47.872;12.014;2022-11-24T16:03:29;6.03;;;3.58;;
23624;SDS011;11989;47.872;12.014;2022-11-24T16:05:55;6.88;;;3.63;;
23624;SDS011;11989;47.872;12.014;2022-11-24T16:08:22;9.60;;;4.85;;
23624;SDS011;11989;47.872;12.014;2022-11-24T16:10:48;11.65;;;6.47;;
23624;SDS011;11989;47.872;12.014;2022-11-24T16:13:14;11.70;;;5.78;;
23624;SDS011;11989;47.872;12.014;2022-11-24T16:15:40;6.45;;;3.75;;
23624;SDS011;11989;47.872;12.014;2022-11-24T16:18:06;8.40;;;4.78;;
23624;SDS011;11989;47.872;12.014;2022-11-24T16:20:32;7.70;;;4.70;;
23624;SDS011;11989;47.872;12.014;2022-11-24T16:23:02;8.50;;;4.45;;
23624;SDS011;11989;47.872;12.014;2022-11-24T16:25:28;9.80;;;5.78;;
23624;SDS011;11989;47.872;12.014;2022-11-24T16:27:54;15.20;;;5.97;;
23624;SDS011;11989;47.872;12.014;2022-11-24T16:30:20;10.95;;;5.88;;
23624;SDS011;11989;47.872;12.014;2022-11-24T16:32:46;9.93;;;5.50;;
23624;SDS011;11989;47.872;12.014;2022-11-24T16:35:12;10.57;;;5.40;;
23624;SDS011;11989;47.872;12.014;2022-11-24T16:37:38;9.00;;;5.70;;
23624;SDS011;11989;47.872;12.014;2022-11-24T16:40:04;10.02;;;5.65;;
23624;SDS011;11989;47.872;12.014;2022-11-24T16:42:30;11.98;;;7.03;;
23624;SDS011;11989;47.872;12.014;2022-11-24T16:44:56;13.07;;;8.02;;
23624;SDS011;11989;47.872;12.014;2022-11-24T16:47:23;14.80;;;10.93;;
23624;SDS011;11989;47.872;12.014;2022-11-24T16:49:49;20.67;;;14.32;;
23624;SDS011;11989;47.872;12.014;2022-11-24T16:52:15;19.80;;;12.27;;
23624;SDS011;11989;47.872;12.014;2022-11-24T16:54:41;15.02;;;10.02;;
23624;SDS011;11989;47.872;12.014;2022-11-24T16:57:07;15.27;;;9.68;;
23624;SDS011;11989;47.872;12.014;2022-11-24T16:59:36;12.23;;;8.23;;
23624;SDS011;11989;47.872;12.014;2022-11-24T17:02:13;12.77;;;7.88;;
23624;SDS011;11989;47.872;12.014;2022-11-24T17:04:39;10.48;;;6.55;;
23624;SDS011;11989;47.872;12.014;2022-11-24T17:07:05;11.05;;;7.82;;
23624;SDS011;11989;47.872;12.014;2022-11-24T17:09:31;17.90;;;9.77;;
23624;SDS011;11989;47.872;12.014;2022-11-24T17:11:58;20.88;;;12.63;;
23624;SDS011;11989;47.872;12.014;2022-11-24T17:14:24;18.35;;;11.10;;
23624;SDS011;11989;47.872;12.014;2022-11-24T17:16:50;24.02;;;15.10;;
23624;SDS011;11989;47.872;12.014;2022-11-24T17:19:16;15.20;;;12.25;;
23624;SDS011;11989;47.872;12.014;2022-11-24T17:21:42;15.68;;;9.90;;
23624;SDS011;11989;47.872;12.014;2022-11-24T17:24:08;13.05;;;9.90;;
23624;SDS011;11989;47.872;12.014;2022-11-24T17:26:39;13.73;;;9.15;;
23624;SDS011;11989;47.872;12.014;2022-11-24T17:29:05;12.93;;;10.75;;
23624;SDS011;11989;47.872;12.014;2022-11-24T17:31:31;20.33;;;15.60;;
23624;SDS011;11989;47.872;12.014;2022-11-24T17:33:59;13.93;;;12.32;;
23624;SDS011;11989;47.872;12.014;2022-11-24T17:36:26;14.40;;;10.35;;
23624;SDS011;11989;47.872;12.014;2022-11-24T17:38:53;12.13;;;9.40;;
23624;SDS011;11989;47.872;12.014;2022-11-24T17:41:19;11.90;;;8.32;;
23624;SDS011;11989;47.872;12.014;2022-11-24T17:43:49;9.88;;;7.18;;
23624;SDS011;11989;47.872;12.014;2022-11-24T17:46:15;15.43;;;10.07;;
23624;SDS011;11989;47.872;12.014;2022-11-24T17:48:41;20.13;;;13.00;;
23624;SDS011;11989;47.872;12.014;2022-11-24T17:51:11;18.90;;;13.18;;
23624;SDS011;11989;47.872;12.014;2022-11-24T17:53:37;17.85;;;12.52;;
23624;SDS011;11989;47.872;12.014;2022-11-24T17:56:04;23.45;;;14.93;;
23624;SDS011;11989;47.872;12.014;2022-11-24T17:58:30;16.30;;;12.48;;
23624;SDS011;11989;47.872;12.014;2022-11-24T18:01:04;15.10;;;10.00;;
23624;SDS011;11989;47.872;12.014;2022-11-24T18:03:31;9.88;;;7.65;;
23624;SDS011;11989;47.872;12.014;2022-11-24T18:06:09;21.98;;;12.95;;
23624;SDS011;11989;47.872;12.014;2022-11-24T18:08:37;28.52;;;17.35;;
23624;SDS011;11989;47.872;12.014;2022-11-24T18:11:07;23.75;;;16.40;;
23624;SDS011;11989;47.872;12.014;2022-11-24T18:13:33;16.20;;;11.25;;
23624;SDS011;11989;47.872;12.014;2022-11-24T18:16:00;16.25;;;11.20;;
23624;SDS011;11989;47.872;12.014;2022-11-24T18:18:26;17.05;;;10.88;;
23624;SDS011;11989;47.872;12.014;2022-11-24T18:20:56;13.43;;;9.30;;
23624;SDS011;11989;47.872;12.014;2022-11-24T18:23:23;15.90;;;9.15;;
23624;SDS011;11989;47.872;12.014;2022-11-24T18:25:55;17.35;;;11.82;;
23624;SDS011;11989;47.872;12.014;2022-11-24T18:28:22;14.20;;;8.75;;
23624;SDS011;11989;47.872;12.014;2022-11-24T18:30:48;14.02;;;9.13;;
23624;SDS011;11989;47.872;12.014;2022-11-24T18:33:15;13.27;;;8.38;;
23624;SDS011;11989;47.872;12.014;2022-11-24T18:35:41;17.25;;;10.85;;
23624;SDS011;11989;47.872;12.014;2022-11-24T18:38:07;15.15;;;10.15;;
23624;SDS011;11989;47.872;12.014;2022-11-24T18:40:36;14.73;;;10.23;;
23624;SDS011;11989;47.872;12.014;2022-11-24T18:43:03;16.55;;;11.50;;
23624;SDS011;11989;47.872;12.014;2022-11-24T18:45:29;14.27;;;9.52;;
23624;SDS011;11989;47.872;12.014;2022-11-24T18:47:55;14.80;;;9.77;;
23624;SDS011;11989;47.872;12.014;2022-11-24T18:50:21;17.27;;;11.65;;
23624;SDS011;11989;47.872;12.014;2022-11-24T18:52:47;17.98;;;10.45;;
23624;SDS011;11989;47.872;12.014;2022-11-24T18:55:13;14.23;;;10.45;;
23624;SDS011;11989;47.872;12.014;2022-11-24T18:57:40;14.27;;;11.20;;
23624;SDS011;11989;47.872;12.014;2022-11-24T19:00:06;14.88;;;11.30;;
23624;SDS011;11989;47.872;12.014;2022-11-24T19:02:32;16.00;;;11.35;;
23624;SDS011;11989;47.872;12.014;2022-11-24T19:04:59;18.02;;;11.90;;
23624;SDS011;11989;47.872;12.014;2022-11-24T19:10:16;17.63;;;12.67;;
23624;SDS011;11989;47.872;12.014;2022-11-24T19:12:54;18.55;;;13.55;;
23624;SDS011;11989;47.872;12.014;2022-11-24T19:15:35;17.20;;;12.65;;
23624;SDS011;11989;47.872;12.014;2022-11-24T19:18:02;18.13;;;12.43;;
23624;SDS011;11989;47.872;12.014;2022-11-24T19:20:32;16.88;;;12.57;;
23624;SDS011;11989;47.872;12.014;2022-11-24T19:22:58;18.15;;;12.32;;
23624;SDS011;11989;47.872;12.014;2022-11-24T19:25:26;18.08;;;13.55;;
23624;SDS011;11989;47.872;12.014;2022-11-24T19:28:03;17.45;;;14.00;;
23624;SDS011;11989;47.872;12.014;2022-11-24T19:30:36;20.35;;;13.38;;
23624;SDS011;11989;47.872;12.014;2022-11-24T19:33:02;19.35;;;14.00;;
23624;SDS011;11989;47.872;12.014;2022-11-24T19:35:48;19.15;;;13.65;;
23624;SDS011;11989;47.872;12.014;2022-11-24T19:38:23;19.70;;;13.82;;
23624;SDS011;11989;47.872;12.014;2022-11-24T19:40:49;18.25;;;14.02;;
23624;SDS011;11989;47.872;12.014;2022-11-24T19:43:15;19.10;;;13.82;;
23624;SDS011;11989;47.872;12.014;2022-11-24T19:45:43;24.58;;;17.30;;
23624;SDS011;11989;47.872;12.014;2022-11-24T19:48:15;20.67;;;15.40;;
23624;SDS011;11989;47.872;12.014;2022-11-24T19:50:45;19.55;;;15.02;;
23624;SDS011;11989;47.872;12.014;2022-11-24T19:53:11;23.05;;;15.45;;
23624;SDS011;11989;47.872;12.014;2022-11-24T19:55:37;14.35;;;11.95;;
23624;SDS011;11989;47.872;12.014;2022-11-24T19:58:09;14.60;;;11.82;;
23624;SDS011;11989;47.872;12.014;2022-11-24T20:00:35;15.88;;;11.50;;
23624;SDS011;11989;47.872;12.014;2022-11-24T20:03:01;19.15;;;13.93;;
23624;SDS011;11989;47.872;12.014;2022-11-24T20:05:27;19.67;;;13.63;;
23624;SDS011;11989;47.872;12.014;2022-11-24T20:07:53;18.23;;;14.10;;
23624;SDS011;11989;47.872;12.014;2022-11-24T20:10:19;22.70;;;14.10;;
23624;SDS011;11989;47.872;12.014;2022-11-24T20:12:45;20.23;;;13.73;;
23624;SDS011;11989;47.872;12.014;2022-11-24T20:15:11;18.35;;;12.40;;
23624;SDS011;11989;47.872;12.014;2022-11-24T20:17:43;16.52;;;11.23;;
23624;SDS011;11989;47.872;12.014;2022-11-24T20:20:10;14.85;;;11.70;;
23624;SDS011;11989;47.872;12.014;2022-11-24T20:22:38;21.63;;;13.80;;
23624;SDS011;11989;47.872;12.014;2022-11-24T20:25:04;19.20;;;12.88;;
23624;SDS011;11989;47.872;12.014;2022-11-24T20:27:32;16.95;;;11.38;;
23624;SDS011;11989;47.872;12.014;2022-11-24T20:29:58;18.05;;;12.52;;
23624;SDS011;11989;47.872;12.014;2022-11-24T20:32:26;19.38;;;12.13;;
23624;SDS011;11989;47.872;12.014;2022-11-24T20:34:59;17.23;;;10.45;;
23624;SDS011;11989;47.872;12.014;2022-11-24T20:37:25;17.38;;;10.82;;
23624;SDS011;11989;47.872;12.014;2022-11-24T20:39:53;13.98;;;9.57;;
23624;SDS011;11989;47.872;12.014;2022-11-24T20:42:21;15.52;;;10.50;;
23624;SDS011;11989;47.872;12.014;2022-11-24T20:44:47;15.02;;;10.18;;
23624;SDS011;11989;47.872;12.014;2022-11-24T20:47:13;16.05;;;9.50;;
23624;SDS011;11989;47.872;12.014;2022-11-24T20:49:39;14.52;;;11.02;;
23624;SDS011;11989;47.872;12.014;2022-11-24T20:52:06;15.77;;;11.93;;
23624;SDS011;11989;47.872;12.014;2022-11-24T20:54:32;15.93;;;13.77;;
23624;SDS011;11989;47.872;12.014;2022-11-24T20:56:58;18.00;;;14.77;;
23624;SDS011;11989;47.872;12.014;2022-11-24T20:59:24;18.60;;;14.32;;
23624;SDS011;11989;47.872;12.014;2022-11-24T21:01:52;20.05;;;13.88;;
23624;SDS011;11989;47.872;12.014;2022-11-24T21:04:23;21.73;;;15.15;;
23624;SDS011;11989;47.872;12.014;2022-11-24T21:06:50;17.15;;;13.02;;
23624;SDS011;11989;47.872;12.014;2022-11-24T21:09:16;19.40;;;13.30;;
23624;SDS011;11989;47.872;12.014;2022-11-24T21:11:42;20.73;;;14.60;;
23624;SDS011;11989;47.872;12.014;2022-11-24T21:14:08;20.58;;;13.77;;
23624;SDS011;11989;47.872;12.014;2022-11-24T21:16:36;15.48;;;10.98;;
23624;SDS011;11989;47.872;12.014;2022-11-24T21:19:07;17.10;;;11.88;;
23624;SDS011;11989;47.872;12.014;2022-11-24T21:21:35;17.65;;;11.88;;
23624;SDS011;11989;47.872;12.014;2022-11-24T21:26:33;18.30;;;13.93;;
23624;SDS011;11989;47.872;12.014;2022-11-24T21:28:59;19.58;;;13.95;;
23624;SDS011;11989;47.872;12.014;2022-11-24T21:31:26;24.45;;;15.80;;
23624;SDS011;11989;47.872;12.014;2022-11-24T21:33:52;23.48;;;12.40;;
23624;SDS011;11989;47.872;12.014;2022-11-24T21:36:20;12.65;;;9.88;;
23624;SDS011;11989;47.872;12.014;2022-11-24T21:38:53;14.63;;;10.82;;
23624;SDS011;11989;47.872;12.014;2022-11-24T21:41:20;14.05;;;10.15;;
23624;SDS011;11989;47.872;12.014;2022-11-24T21:43:46;13.20;;;10.13;;
23624;SDS011;11989;47.872;12.014;2022-11-24T21:46:12;12.40;;;9.15;;
23624;SDS011;11989;47.872;12.014;2022-11-24T21:48:39;13.32;;;9.50;;
23624;SDS011;11989;47.872;12.014;2022-11-24T21:51:06;12.88;;;9.45;;
23624;SDS011;11989;47.872;12.014;2022-11-24T21:53:34;14.93;;;11.25;;
23624;SDS011;11989;47.872;12.014;2022-11-24T21:56:01;13.68;;;10.38;;
23624;SDS011;11989;47.872;12.014;2022-11-24T21:58:29;13.88;;;10.40;;
23624;SDS011;11989;47.872;12.014;2022-11-24T22:01:03;15.60;;;12.90;;
23624;SDS011;11989;47.872;12.014;2022-11-24T22:03:29;16.50;;;11.70;;
23624;SDS011;11989;47.872;12.014;2022-11-24T22:05:56;17.52;;;10.98;;
23624;SDS011;11989;47.872;12.014;2022-11-24T22:08:23;13.90;;;11.93;;
23624;SDS011;11989;47.872;12.014;2022-11-24T22:10:50;15.38;;;11.55;;
23624;SDS011;11989;47.872;12.014;2022-11-24T22:13:17;15.30;;;11.00;;
23624;SDS011;11989;47.872;12.014;2022-11-24T22:15:43;15.23;;;12.15;;
23624;SDS011;11989;47.872;12.014;2022-11-24T22:18:10;15.02;;;10.32;;
23624;SDS011;11989;47.872;12.014;2022-11-24T22:23:57;14.45;;;10.70;;
23624;SDS011;11989;47.872;12.014;2022-11-24T22:26:24;15.30;;;10.88;;
23624;SDS011;11989;47.872;12.014;2022-11-24T22:28:50;13.57;;;10.13;;
23624;SDS011;11989;47.872;12.014;2022-11-24T22:31:17;13.50;;;9.93;;
23624;SDS011;11989;47.872;12.014;2022-11-24T22:33:44;15.25;;;10.90;;
23624;SDS011;11989;47.872;12.014;2022-11-24T22:36:11;14.23;;;9.65;;
23624;SDS011;11989;47.872;12.014;2022-11-24T22:38:37;13.10;;;9.43;;
23624;SDS011;11989;47.872;12.014;2022-11-24T22:41:07;12.80;;;10.85;;
23624;SDS011;11989;47.872;12.014;2022-11-24T22:43:34;12.43;;;11.00;;
23624;SDS011;11989;47.872;12.014;2022-11-24T22:46:01;13.73;;;9.95;;
23624;SDS011;11989;47.872;12.014;2022-11-24T22:48:28;15.18;;;10.48;;
23624;SDS011;11989;47.872;12.014;2022-11-24T22:50:59;13.05;;;9.70;;
23624;SDS011;11989;47.872;12.014;2022-11-24T22:53:25;16.05;;;11.05;;
23624;SDS011;11989;47.872;12.014;2022-11-24T22:55:51;14.50;;;10.35;;
23624;SDS011;11989;47.872;12.014;2022-11-24T22:58:17;14.77;;;10.38;;
23624;SDS011;11989;47.872;12.014;2022-11-24T23:00:43;15.00;;;9.75;;
23624;SDS011;11989;47.872;12.014;2022-11-24T23:03:09;14.10;;;9.50;;
23624;SDS011;11989;47.872;12.014;2022-11-24T23:05:35;11.32;;;9.07;;
23624;SDS011;11989;47.872;12.014;2022-11-24T23:08:01;13.77;;;9.18;;
23624;SDS011;11989;47.872;12.014;2022-11-24T23:10:27;13.05;;;8.50;;
23624;SDS011;11989;47.872;12.014;2022-11-24T23:12:54;11.18;;;8.15;;
23624;SDS011;11989;47.872;12.014;2022-11-24T23:15:20;13.63;;;9.73;;
23624;SDS011;11989;47.872;12.014;2022-11-24T23:17:46;14.85;;;10.68;;
23624;SDS011;11989;47.872;12.014;2022-11-24T23:20:12;11.27;;;8.98;;
23624;SDS011;11989;47.872;12.014;2022-11-24T23:23:05;10.93;;;8.20;;
23624;SDS011;11989;47.872;12.014;2022-11-24T23:25:33;10.13;;;8.40;;
23624;SDS011;11989;47.872;12.014;2022-11-24T23:28:00;9.57;;;7.35;;
23624;SDS011;11989;47.872;12.014;2022-11-24T23:30:26;11.68;;;8.27;;
23624;SDS011;11989;47.872;12.014;2022-11-24T23:32:54;11.00;;;7.57;;
23624;SDS011;11989;47.872;12.014;2022-11-24T23:35:20;11.13;;;8.23;;
23624;SDS011;11989;47.872;12.014;2022-11-24T23:37:47;11.52;;;8.38;;
23624;SDS011;11989;47.872;12.014;2022-11-24T23:40:14;10.15;;;7.30;;
23624;SDS011;11989;47.872;12.014;2022-11-24T23:42:40;10.65;;;7.93;;
23624;SDS011;11989;47.872;12.014;2022-11-24T23:45:07;8.75;;;6.88;;
23624;SDS011;11989;47.872;12.014;2022-11-24T23:47:34;8.98;;;7.07;;
23624;SDS011;11989;47.872;12.014;2022-11-24T23:50:01;13.27;;;8.52;;
23624;SDS011;11989;47.872;12.014;2022-11-24T23:52:28;11.80;;;7.85;;
23624;SDS011;11989;47.872;12.014;2022-11-24T23:54:54;20.00;;;13.00;;
23624;SDS011;11989;47.872;12.014;2022-11-24T23:57:20;33.45;;;20.48;;
23624;SDS011;11989;47.872;12.014;2022-11-24T23:59:47;18.25;;;12.85;;
